sensor_id;sensor_type;location;lat;lon;timestamp;pressure;altitude;pressure_sealevel;temperature
37414;BMP280;23279;46.472;30.760;2023-04-06T00:00:18;76298.66;;;-146.33
37414;BMP280;23279;46.472;30.760;2023-04-06T00:02:44;76312.88;;;-146.33
37414;BMP280;23279;46.472;30.760;2023-04-06T00:05:09;76314.91;;;-146.33
37414;BMP280;23279;46.472;30.760;2023-04-06T00:07:35;76310.84;;;-146.33
37414;BMP280;23279;46.472;30.760;2023-04-06T00:10:01;76316.97;;;-146.33
37414;BMP280;23279;46.472;30.760;2023-04-06T00:12:27;76304.75;;;-146.33
37414;BMP280;23279;46.472;30.760;2023-04-06T00:14:52;76294.59;;;-146.33
37414;BMP280;23279;46.472;30.760;2023-04-06T00:17:17;76302.72;;;-146.33
37414;BMP280;23279;46.472;30.760;2023-04-06T00:19:43;76319.00;;;-146.33
37414;BMP280;23279;46.472;30.760;2023-04-06T00:22:08;76325.09;;;-146.33
37414;BMP280;23279;46.472;30.760;2023-04-06T00:24:34;76327.13;;;-146.33
37414;BMP280;23279;46.472;30.760;2023-04-06T00:26:59;76327.13;;;-146.33
37414;BMP280;23279;46.472;30.760;2023-04-06T00:29:25;76327.13;;;-146.33
37414;BMP280;23279;46.472;30.760;2023-04-06T00:31:50;76329.16;;;-146.33
37414;BMP280;23279;46.472;30.760;2023-04-06T00:34:16;76337.28;;;-146.33
37414;BMP280;23279;46.472;30.760;2023-04-06T00:36:41;76323.06;;;-146.33
37414;BMP280;23279;46.472;30.760;2023-04-06T00:39:07;76319.00;;;-146.33
37414;BMP280;23279;46.472;30.760;2023-04-06T00:41:32;76325.09;;;-146.33
37414;BMP280;23279;46.472;30.760;2023-04-06T00:43:58;76310.84;;;-146.33
37414;BMP280;23279;46.472;30.760;2023-04-06T00:46:23;76298.66;;;-146.33
37414;BMP280;23279;46.472;30.760;2023-04-06T00:48:49;76286.44;;;-146.33
37414;BMP280;23279;46.472;30.760;2023-04-06T00:51:14;76284.41;;;-146.33
37414;BMP280;23279;46.472;30.760;2023-04-06T00:53:40;76270.19;;;-146.33
37414;BMP280;23279;46.472;30.760;2023-04-06T00:56:05;76278.31;;;-146.33
37414;BMP280;23279;46.472;30.760;2023-04-06T00:58:31;76272.22;;;-146.33
37414;BMP280;23279;46.472;30.760;2023-04-06T01:00:57;76276.28;;;-146.33
37414;BMP280;23279;46.472;30.760;2023-04-06T01:03:23;76266.13;;;-146.33
37414;BMP280;23279;46.472;30.760;2023-04-06T01:05:48;76262.03;;;-146.33
37414;BMP280;23279;46.472;30.760;2023-04-06T01:08:14;76266.13;;;-146.33
37414;BMP280;23279;46.472;30.760;2023-04-06T01:10:40;76288.47;;;-146.33
37414;BMP280;23279;46.472;30.760;2023-04-06T01:13:05;76278.31;;;-146.33
37414;BMP280;23279;46.472;30.760;2023-04-06T01:15:32;76286.44;;;-146.33
37414;BMP280;23279;46.472;30.760;2023-04-06T01:17:58;76280.34;;;-146.33
37414;BMP280;23279;46.472;30.760;2023-04-06T01:20:24;76288.47;;;-146.33
37414;BMP280;23279;46.472;30.760;2023-04-06T01:22:49;76302.72;;;-146.33
37414;BMP280;23279;46.472;30.760;2023-04-06T01:25:15;76286.44;;;-146.33
37414;BMP280;23279;46.472;30.760;2023-04-06T01:27:40;76302.72;;;-146.33
37414;BMP280;23279;46.472;30.760;2023-04-06T01:30:06;76296.63;;;-146.33
37414;BMP280;23279;46.472;30.760;2023-04-06T01:32:32;76308.81;;;-146.33
37414;BMP280;23279;46.472;30.760;2023-04-06T01:34:58;76319.00;;;-146.33
37414;BMP280;23279;46.472;30.760;2023-04-06T01:37:23;76304.75;;;-146.33
37414;BMP280;23279;46.472;30.760;2023-04-06T01:39:50;76327.13;;;-146.33
37414;BMP280;23279;46.472;30.760;2023-04-06T01:42:15;76323.06;;;-146.33
37414;BMP280;23279;46.472;30.760;2023-04-06T01:44:41;76341.34;;;-146.33
37414;BMP280;23279;46.472;30.760;2023-04-06T01:47:06;76327.13;;;-146.33
37414;BMP280;23279;46.472;30.760;2023-04-06T01:49:32;76333.22;;;-146.33
37414;BMP280;23279;46.472;30.760;2023-04-06T01:51:57;76339.31;;;-146.33
37414;BMP280;23279;46.472;30.760;2023-04-06T01:54:23;76345.44;;;-146.33
37414;BMP280;23279;46.472;30.760;2023-04-06T01:56:48;76347.47;;;-146.33
37414;BMP280;23279;46.472;30.760;2023-04-06T01:59:15;76329.16;;;-146.33
37414;BMP280;23279;46.472;30.760;2023-04-06T02:01:41;76345.44;;;-146.33
37414;BMP280;23279;46.472;30.760;2023-04-06T02:04:06;76349.50;;;-146.33
37414;BMP280;23279;46.472;30.760;2023-04-06T02:06:31;76353.56;;;-146.33
37414;BMP280;23279;46.472;30.760;2023-04-06T02:08:57;76349.50;;;-146.33
37414;BMP280;23279;46.472;30.760;2023-04-06T02:11:22;76359.66;;;-146.33
37414;BMP280;23279;46.472;30.760;2023-04-06T02:13:48;76359.66;;;-146.33
37414;BMP280;23279;46.472;30.760;2023-04-06T02:16:13;76367.78;;;-146.33
37414;BMP280;23279;46.472;30.760;2023-04-06T02:18:39;76373.91;;;-146.33
37414;BMP280;23279;46.472;30.760;2023-04-06T02:21:05;76375.94;;;-146.33
37414;BMP280;23279;46.472;30.760;2023-04-06T02:23:30;76384.06;;;-146.33
37414;BMP280;23279;46.472;30.760;2023-04-06T02:25:56;76388.13;;;-146.33
37414;BMP280;23279;46.472;30.760;2023-04-06T02:28:21;76392.19;;;-146.33
37414;BMP280;23279;46.472;30.760;2023-04-06T02:30:47;76400.34;;;-146.33
37414;BMP280;23279;46.472;30.760;2023-04-06T02:33:12;76404.41;;;-146.33
37414;BMP280;23279;46.472;30.760;2023-04-06T02:35:38;76404.41;;;-146.33
37414;BMP280;23279;46.472;30.760;2023-04-06T02:38:03;76408.47;;;-146.33
37414;BMP280;23279;46.472;30.760;2023-04-06T02:40:28;76404.41;;;-146.33
37414;BMP280;23279;46.472;30.760;2023-04-06T02:42:54;76414.56;;;-146.33
37414;BMP280;23279;46.472;30.760;2023-04-06T02:45:19;76410.50;;;-146.33
37414;BMP280;23279;46.472;30.760;2023-04-06T02:47:45;76416.59;;;-146.33
37414;BMP280;23279;46.472;30.760;2023-04-06T02:50:11;76410.50;;;-146.33
37414;BMP280;23279;46.472;30.760;2023-04-06T02:52:36;76420.69;;;-146.33
37414;BMP280;23279;46.472;30.760;2023-04-06T02:55:02;76416.59;;;-146.33
37414;BMP280;23279;46.472;30.760;2023-04-06T02:57:27;76414.56;;;-146.33
37414;BMP280;23279;46.472;30.760;2023-04-06T02:59:53;76449.16;;;-146.33
37414;BMP280;23279;46.472;30.760;2023-04-06T03:02:18;76469.50;;;-146.33
37414;BMP280;23279;46.472;30.760;2023-04-06T03:04:44;76477.63;;;-146.33
37414;BMP280;23279;46.472;30.760;2023-04-06T03:07:10;76483.72;;;-146.33
37414;BMP280;23279;46.472;30.760;2023-04-06T03:09:37;76497.97;;;-146.33
37414;BMP280;23279;46.472;30.760;2023-04-06T03:12:03;76481.69;;;-146.33
37414;BMP280;23279;46.472;30.760;2023-04-06T03:14:29;76502.03;;;-146.33
37414;BMP280;23279;46.472;30.760;2023-04-06T03:16:54;76510.16;;;-146.33
37414;BMP280;23279;46.472;30.760;2023-04-06T03:19:20;76538.63;;;-146.33
37414;BMP280;23279;46.472;30.760;2023-04-06T03:21:45;76530.50;;;-146.33
37414;BMP280;23279;46.472;30.760;2023-04-06T03:24:11;76563.03;;;-146.33
37414;BMP280;23279;46.472;30.760;2023-04-06T03:26:38;76597.63;;;-146.33
37414;BMP280;23279;46.472;30.760;2023-04-06T03:29:03;76583.38;;;-146.33
37414;BMP280;23279;46.472;30.760;2023-04-06T03:31:28;76599.66;;;-146.33
37414;BMP280;23279;46.472;30.760;2023-04-06T03:33:54;76605.75;;;-146.33
37414;BMP280;23279;46.472;30.760;2023-04-06T03:36:20;76607.78;;;-146.33
37414;BMP280;23279;46.472;30.760;2023-04-06T03:38:45;76617.97;;;-146.33
37414;BMP280;23279;46.472;30.760;2023-04-06T03:41:10;76630.16;;;-146.33
37414;BMP280;23279;46.472;30.760;2023-04-06T03:43:36;76644.41;;;-146.33
37414;BMP280;23279;46.472;30.760;2023-04-06T03:46:01;76685.06;;;-146.33
37414;BMP280;23279;46.472;30.760;2023-04-06T03:48:27;76681.00;;;-146.33
37414;BMP280;23279;46.472;30.760;2023-04-06T03:50:52;76689.16;;;-146.33
37414;BMP280;23279;46.472;30.760;2023-04-06T03:53:18;76681.00;;;-146.33
37414;BMP280;23279;46.472;30.760;2023-04-06T03:55:43;76701.34;;;-146.33
37414;BMP280;23279;46.472;30.760;2023-04-06T03:58:09;76697.28;;;-146.33
37414;BMP280;23279;46.472;30.760;2023-04-06T04:00:34;76713.56;;;-146.33
37414;BMP280;23279;46.472;30.760;2023-04-06T04:03:00;76729.81;;;-146.33
37414;BMP280;23279;46.472;30.760;2023-04-06T04:05:27;76725.75;;;-146.33
37414;BMP280;23279;46.472;30.760;2023-04-06T04:07:52;76756.28;;;-146.33
37414;BMP280;23279;46.472;30.760;2023-04-06T04:10:18;76770.50;;;-146.33
37414;BMP280;23279;46.472;30.760;2023-04-06T04:12:43;76792.88;;;-146.33
37414;BMP280;23279;46.472;30.760;2023-04-06T04:15:09;76794.91;;;-146.33
37414;BMP280;23279;46.472;30.760;2023-04-06T04:17:34;76790.84;;;-146.33
37414;BMP280;23279;46.472;30.760;2023-04-06T04:20:00;76784.75;;;-146.33
37414;BMP280;23279;46.472;30.760;2023-04-06T04:22:25;76803.06;;;-146.33
37414;BMP280;23279;46.472;30.760;2023-04-06T04:24:53;76813.22;;;-146.33
37414;BMP280;23279;46.472;30.760;2023-04-06T04:27:18;76823.38;;;-146.33
37414;BMP280;23279;46.472;30.760;2023-04-06T04:29:43;76843.72;;;-146.33
37414;BMP280;23279;46.472;30.760;2023-04-06T04:32:09;76829.50;;;-146.33
37414;BMP280;23279;46.472;30.760;2023-04-06T04:34:34;76847.81;;;-146.33
37414;BMP280;23279;46.472;30.760;2023-04-06T04:37:00;76843.72;;;-146.33
37414;BMP280;23279;46.472;30.760;2023-04-06T04:39:26;76831.53;;;-146.33
37414;BMP280;23279;46.472;30.760;2023-04-06T04:41:51;76862.03;;;-146.33
37414;BMP280;23279;46.472;30.760;2023-04-06T04:44:17;76868.13;;;-146.33
37414;BMP280;23279;46.472;30.760;2023-04-06T04:46:42;76878.31;;;-146.33
37414;BMP280;23279;46.472;30.760;2023-04-06T04:49:07;76884.41;;;-146.33
37414;BMP280;23279;46.472;30.760;2023-04-06T04:51:33;76896.63;;;-146.33
37414;BMP280;23279;46.472;30.760;2023-04-06T04:53:59;76896.63;;;-146.33
37414;BMP280;23279;46.472;30.760;2023-04-06T04:56:24;76884.41;;;-146.33
37414;BMP280;23279;46.472;30.760;2023-04-06T04:58:50;76886.44;;;-146.33
37414;BMP280;23279;46.472;30.760;2023-04-06T05:01:16;76900.69;;;-146.33
37414;BMP280;23279;46.472;30.760;2023-04-06T05:03:41;76890.50;;;-146.33
37414;BMP280;23279;46.472;30.760;2023-04-06T05:06:07;76872.22;;;-146.33
37414;BMP280;23279;46.472;30.760;2023-04-06T05:08:32;76888.47;;;-146.33
37414;BMP280;23279;46.472;30.760;2023-04-06T05:10:58;76890.50;;;-146.33
37414;BMP280;23279;46.472;30.760;2023-04-06T05:13:24;76906.78;;;-146.33
37414;BMP280;23279;46.472;30.760;2023-04-06T05:15:49;76916.97;;;-146.33
37414;BMP280;23279;46.472;30.760;2023-04-06T05:18:15;76916.97;;;-146.33
37414;BMP280;23279;46.472;30.760;2023-04-06T05:20:40;76916.97;;;-146.33
37414;BMP280;23279;46.472;30.760;2023-04-06T05:23:07;76910.84;;;-146.33
37414;BMP280;23279;46.472;30.760;2023-04-06T05:25:33;76904.75;;;-146.33
37414;BMP280;23279;46.472;30.760;2023-04-06T05:27:58;76921.03;;;-146.33
37414;BMP280;23279;46.472;30.760;2023-04-06T05:30:24;76914.94;;;-146.33
37414;BMP280;23279;46.472;30.760;2023-04-06T05:32:50;76925.09;;;-146.33
37414;BMP280;23279;46.472;30.760;2023-04-06T05:35:15;76916.97;;;-146.33
37414;BMP280;23279;46.472;30.760;2023-04-06T05:37:42;76916.97;;;-146.33
37414;BMP280;23279;46.472;30.760;2023-04-06T05:40:08;76921.03;;;-146.33
37414;BMP280;23279;46.472;30.760;2023-04-06T05:42:41;76935.28;;;-146.33
37414;BMP280;23279;46.472;30.760;2023-04-06T05:45:11;76931.19;;;-146.33
37414;BMP280;23279;46.472;30.760;2023-04-06T05:47:41;76923.06;;;-146.33
37414;BMP280;23279;46.472;30.760;2023-04-06T05:50:07;76900.69;;;-146.33
37414;BMP280;23279;46.472;30.760;2023-04-06T05:52:33;76925.09;;;-146.33
37414;BMP280;23279;46.472;30.760;2023-04-06T05:54:58;76927.13;;;-146.33
37414;BMP280;23279;46.472;30.760;2023-04-06T05:57:24;76923.06;;;-146.33
37414;BMP280;23279;46.472;30.760;2023-04-06T05:59:49;76951.53;;;-146.33
37414;BMP280;23279;46.472;30.760;2023-04-06T06:02:15;76941.38;;;-146.33
37414;BMP280;23279;46.472;30.760;2023-04-06T06:04:40;76955.59;;;-146.33
37414;BMP280;23279;46.472;30.760;2023-04-06T06:07:05;76953.56;;;-146.33
37414;BMP280;23279;46.472;30.760;2023-04-06T06:09:31;76949.50;;;-146.33
37414;BMP280;23279;46.472;30.760;2023-04-06T06:11:56;76953.56;;;-146.33
37414;BMP280;23279;46.472;30.760;2023-04-06T06:14:22;76957.66;;;-146.33
37414;BMP280;23279;46.472;30.760;2023-04-06T06:16:47;76957.66;;;-146.33
37414;BMP280;23279;46.472;30.760;2023-04-06T06:19:13;76941.38;;;-146.33
37414;BMP280;23279;46.472;30.760;2023-04-06T06:21:39;76953.56;;;-146.33
37414;BMP280;23279;46.472;30.760;2023-04-06T06:24:04;76977.97;;;-146.33
37414;BMP280;23279;46.472;30.760;2023-04-06T06:26:30;76988.16;;;-146.33
37414;BMP280;23279;46.472;30.760;2023-04-06T06:28:56;76998.31;;;-146.33
37414;BMP280;23279;46.472;30.760;2023-04-06T06:31:21;76996.28;;;-146.33
37414;BMP280;23279;46.472;30.760;2023-04-06T06:33:48;77012.56;;;-146.33
37414;BMP280;23279;46.472;30.760;2023-04-06T06:36:17;77051.22;;;-146.33
37414;BMP280;23279;46.472;30.760;2023-04-06T06:38:42;77043.06;;;-146.33
37414;BMP280;23279;46.472;30.760;2023-04-06T06:41:08;77028.84;;;-146.33
37414;BMP280;23279;46.472;30.760;2023-04-06T06:43:33;77039.00;;;-146.33
37414;BMP280;23279;46.472;30.760;2023-04-06T06:45:59;77041.03;;;-146.33
37414;BMP280;23279;46.472;30.760;2023-04-06T06:48:24;77051.22;;;-146.33
37414;BMP280;23279;46.472;30.760;2023-04-06T06:50:50;77061.38;;;-146.33
37414;BMP280;23279;46.472;30.760;2023-04-06T06:53:15;77085.78;;;-146.33
37414;BMP280;23279;46.472;30.760;2023-04-06T06:55:41;77083.75;;;-146.33
37414;BMP280;23279;46.472;30.760;2023-04-06T06:58:06;77087.84;;;-146.33
37414;BMP280;23279;46.472;30.760;2023-04-06T07:00:32;77100.03;;;-146.33
37414;BMP280;23279;46.472;30.760;2023-04-06T07:02:57;77108.19;;;-146.33
37414;BMP280;23279;46.472;30.760;2023-04-06T07:05:23;77112.25;;;-146.33
37414;BMP280;23279;46.472;30.760;2023-04-06T07:07:48;77116.31;;;-146.33
37414;BMP280;23279;46.472;30.760;2023-04-06T07:10:14;77108.19;;;-146.33
37414;BMP280;23279;46.472;30.760;2023-04-06T07:12:39;77130.56;;;-146.33
37414;BMP280;23279;46.472;30.760;2023-04-06T07:15:05;77116.31;;;-146.33
37414;BMP280;23279;46.472;30.760;2023-04-06T07:17:31;77140.72;;;-146.33
37414;BMP280;23279;46.472;30.760;2023-04-06T07:19:56;77148.84;;;-146.33
37414;BMP280;23279;46.472;30.760;2023-04-06T07:22:22;77136.66;;;-146.33
37414;BMP280;23279;46.472;30.760;2023-04-06T07:24:47;77148.84;;;-146.33
37414;BMP280;23279;46.472;30.760;2023-04-06T07:27:13;77138.69;;;-146.33
37414;BMP280;23279;46.472;30.760;2023-04-06T07:29:38;77150.91;;;-146.33
37414;BMP280;23279;46.472;30.760;2023-04-06T07:32:04;77136.66;;;-146.33
37414;BMP280;23279;46.472;30.760;2023-04-06T07:34:29;77126.47;;;-146.33
37414;BMP280;23279;46.472;30.760;2023-04-06T07:36:55;77169.19;;;-146.33
37414;BMP280;23279;46.472;30.760;2023-04-06T07:39:21;77163.09;;;-146.33
37414;BMP280;23279;46.472;30.760;2023-04-06T07:41:47;77165.13;;;-146.33
37414;BMP280;23279;46.472;30.760;2023-04-06T07:44:12;77163.09;;;-146.33
37414;BMP280;23279;46.472;30.760;2023-04-06T07:46:38;77181.41;;;-146.33
37414;BMP280;23279;46.472;30.760;2023-04-06T07:49:03;77169.19;;;-146.33
37414;BMP280;23279;46.472;30.760;2023-04-06T07:51:29;77205.81;;;-146.33
37414;BMP280;23279;46.472;30.760;2023-04-06T07:53:54;77213.97;;;-146.33
37414;BMP280;23279;46.472;30.760;2023-04-06T07:56:20;77207.84;;;-146.33
37414;BMP280;23279;46.472;30.760;2023-04-06T07:58:46;77201.75;;;-146.33
37414;BMP280;23279;46.472;30.760;2023-04-06T08:01:11;77216.00;;;-146.33
37414;BMP280;23279;46.472;30.760;2023-04-06T08:03:37;77230.22;;;-146.33
37414;BMP280;23279;46.472;30.760;2023-04-06T08:06:03;77230.22;;;-146.33
37414;BMP280;23279;46.472;30.760;2023-04-06T08:08:28;77226.16;;;-146.33
37414;BMP280;23279;46.472;30.760;2023-04-06T08:10:54;77238.38;;;-146.33
37414;BMP280;23279;46.472;30.760;2023-04-06T08:13:20;77209.88;;;-146.33
37414;BMP280;23279;46.472;30.760;2023-04-06T08:15:45;77234.31;;;-146.33
37414;BMP280;23279;46.472;30.760;2023-04-06T08:18:11;77222.09;;;-146.33
37414;BMP280;23279;46.472;30.760;2023-04-06T08:20:37;77193.63;;;-146.33
37414;BMP280;23279;46.472;30.760;2023-04-06T08:23:02;77230.22;;;-146.33
37414;BMP280;23279;46.472;30.760;2023-04-06T08:25:28;77234.31;;;-146.33
37414;BMP280;23279;46.472;30.760;2023-04-06T08:27:54;77209.88;;;-146.33
37414;BMP280;23279;46.472;30.760;2023-04-06T08:30:20;77171.25;;;-146.33
37414;BMP280;23279;46.472;30.760;2023-04-06T08:32:46;77185.47;;;-146.33
37414;BMP280;23279;46.472;30.760;2023-04-06T08:35:11;77238.38;;;-146.33
37414;BMP280;23279;46.472;30.760;2023-04-06T08:37:37;77240.41;;;-146.33
37414;BMP280;23279;46.472;30.760;2023-04-06T08:40:03;77222.09;;;-146.33
37414;BMP280;23279;46.472;30.760;2023-04-06T08:42:32;77238.38;;;-146.33
37414;BMP280;23279;46.472;30.760;2023-04-06T08:44:59;77250.56;;;-146.33
37414;BMP280;23279;46.472;30.760;2023-04-06T08:47:25;77279.06;;;-146.33
37414;BMP280;23279;46.472;30.760;2023-04-06T08:49:51;77270.91;;;-146.33
37414;BMP280;23279;46.472;30.760;2023-04-06T08:52:18;77283.13;;;-146.33
37414;BMP280;23279;46.472;30.760;2023-04-06T08:54:44;77303.47;;;-146.33
37414;BMP280;23279;46.472;30.760;2023-04-06T08:57:10;77297.38;;;-146.33
37414;BMP280;23279;46.472;30.760;2023-04-06T08:59:35;77307.53;;;-146.33
37414;BMP280;23279;46.472;30.760;2023-04-06T09:02:04;77323.81;;;-146.33
37414;BMP280;23279;46.472;30.760;2023-04-06T09:04:35;77307.53;;;-146.33
37414;BMP280;23279;46.472;30.760;2023-04-06T09:07:01;77281.09;;;-146.33
37414;BMP280;23279;46.472;30.760;2023-04-06T09:09:27;77293.28;;;-146.33
37414;BMP280;23279;46.472;30.760;2023-04-06T09:11:53;77287.19;;;-146.33
37414;BMP280;23279;46.472;30.760;2023-04-06T09:14:38;77291.25;;;-146.33
37414;BMP280;23279;46.472;30.760;2023-04-06T09:17:05;77336.03;;;-146.33
37414;BMP280;23279;46.472;30.760;2023-04-06T09:19:30;77319.75;;;-146.33
37414;BMP280;23279;46.472;30.760;2023-04-06T09:22:04;77360.44;;;-146.33
37414;BMP280;23279;46.472;30.760;2023-04-06T09:24:39;77333.97;;;-146.33
37414;BMP280;23279;46.472;30.760;2023-04-06T09:27:05;77403.16;;;-146.33
37414;BMP280;23279;46.472;30.760;2023-04-06T09:29:31;77435.72;;;-146.33
37414;BMP280;23279;46.472;30.760;2023-04-06T09:32:04;77423.50;;;-146.33
37414;BMP280;23279;46.472;30.760;2023-04-06T09:34:30;77421.47;;;-146.33
37414;BMP280;23279;46.472;30.760;2023-04-06T09:36:55;77409.25;;;-146.33
37414;BMP280;23279;46.472;30.760;2023-04-06T09:39:22;77405.19;;;-146.33
37414;BMP280;23279;46.472;30.760;2023-04-06T09:41:50;77443.84;;;-146.33
37414;BMP280;23279;46.472;30.760;2023-04-06T09:44:16;77531.34;;;-146.33
37414;BMP280;23279;46.472;30.760;2023-04-06T09:46:43;77539.47;;;-146.33
37414;BMP280;23279;46.472;30.760;2023-04-06T09:49:09;77486.56;;;-146.33
37414;BMP280;23279;46.472;30.760;2023-04-06T09:54:04;77508.94;;;-146.33
37414;BMP280;23279;46.472;30.760;2023-04-06T09:56:47;77535.41;;;-146.33
37414;BMP280;23279;46.472;30.760;2023-04-06T09:59:25;77567.94;;;-146.33
37414;BMP280;23279;46.472;30.760;2023-04-06T10:01:51;77578.13;;;-146.33
37414;BMP280;23279;46.472;30.760;2023-04-06T10:04:33;77624.91;;;-146.33
37414;BMP280;23279;46.472;30.760;2023-04-06T10:07:02;77620.84;;;-146.33
37414;BMP280;23279;46.472;30.760;2023-04-06T10:09:29;77653.41;;;-146.33
37414;BMP280;23279;46.472;30.760;2023-04-06T10:12:05;77681.88;;;-146.33
37414;BMP280;23279;46.472;30.760;2023-04-06T10:14:34;77663.59;;;-146.33
37414;BMP280;23279;46.472;30.760;2023-04-06T10:17:05;77667.66;;;-146.33
37414;BMP280;23279;46.472;30.760;2023-04-06T10:20:02;77677.81;;;-146.33
37414;BMP280;23279;46.472;30.760;2023-04-06T10:22:41;77696.13;;;-146.33
37414;BMP280;23279;46.472;30.760;2023-04-06T10:25:08;77708.34;;;-146.33
37414;BMP280;23279;46.472;30.760;2023-04-06T10:27:34;77726.66;;;-146.33
37414;BMP280;23279;46.472;30.760;2023-04-06T10:30:04;77742.94;;;-146.33
37414;BMP280;23279;46.472;30.760;2023-04-06T10:35:06;77767.34;;;-146.33
37414;BMP280;23279;46.472;30.760;2023-04-06T10:37:52;77728.69;;;-146.33
37414;BMP280;23279;46.472;30.760;2023-04-06T10:40:23;77738.88;;;-146.33
37414;BMP280;23279;46.472;30.760;2023-04-06T10:42:49;77738.88;;;-146.33
37414;BMP280;23279;46.472;30.760;2023-04-06T10:45:22;77751.06;;;-146.33
37414;BMP280;23279;46.472;30.760;2023-04-06T10:47:49;77742.94;;;-146.33
37414;BMP280;23279;46.472;30.760;2023-04-06T10:50:15;77767.34;;;-146.33
37414;BMP280;23279;46.472;30.760;2023-04-06T10:52:45;77765.31;;;-146.33
37414;BMP280;23279;46.472;30.760;2023-04-06T10:55:12;77791.78;;;-146.33
37414;BMP280;23279;46.472;30.760;2023-04-06T10:57:38;77806.00;;;-146.33
37414;BMP280;23279;46.472;30.760;2023-04-06T11:00:05;77891.47;;;-146.33
37414;BMP280;23279;46.472;30.760;2023-04-06T11:02:31;77881.31;;;-146.33
37414;BMP280;23279;46.472;30.760;2023-04-06T11:04:57;77881.31;;;-146.33
37414;BMP280;23279;46.472;30.760;2023-04-06T11:07:27;77934.19;;;-146.33
37414;BMP280;23279;46.472;30.760;2023-04-06T11:09:53;77964.72;;;-146.33
37414;BMP280;23279;46.472;30.760;2023-04-06T11:12:27;77997.28;;;-146.33
37414;BMP280;23279;46.472;30.760;2023-04-06T11:17:28;78044.09;;;-146.33
37414;BMP280;23279;46.472;30.760;2023-04-06T11:19:54;78060.38;;;-146.33
37414;BMP280;23279;46.472;30.760;2023-04-06T11:22:20;78072.56;;;-146.33
37414;BMP280;23279;46.472;30.760;2023-04-06T11:24:45;78019.66;;;-146.33
37414;BMP280;23279;46.472;30.760;2023-04-06T11:27:11;78011.53;;;-146.33
37414;BMP280;23279;46.472;30.760;2023-04-06T11:29:37;78044.09;;;-146.33
37414;BMP280;23279;46.472;30.760;2023-04-06T11:32:04;78046.13;;;-146.33
37414;BMP280;23279;46.472;30.760;2023-04-06T11:34:33;78080.72;;;-146.33
37414;BMP280;23279;46.472;30.760;2023-04-06T11:37:00;78115.31;;;-146.33
37414;BMP280;23279;46.472;30.760;2023-04-06T11:39:28;78147.88;;;-146.33
37414;BMP280;23279;46.472;30.760;2023-04-06T11:41:57;78147.88;;;-146.33
37414;BMP280;23279;46.472;30.760;2023-04-06T11:44:37;78141.75;;;-146.33
37414;BMP280;23279;46.472;30.760;2023-04-06T11:47:08;78139.72;;;-146.33
37414;BMP280;23279;46.472;30.760;2023-04-06T11:49:44;78149.91;;;-146.33
37414;BMP280;23279;46.472;30.760;2023-04-06T11:52:22;78153.97;;;-146.33
37414;BMP280;23279;46.472;30.760;2023-04-06T11:54:50;78133.63;;;-146.33
37414;BMP280;23279;46.472;30.760;2023-04-06T11:57:16;78113.28;;;-146.33
37414;BMP280;23279;46.472;30.760;2023-04-06T11:59:42;78097.00;;;-146.33
37414;BMP280;23279;46.472;30.760;2023-04-06T12:02:08;78141.75;;;-146.33
37414;BMP280;23279;46.472;30.760;2023-04-06T12:04:34;78178.41;;;-146.33
37414;BMP280;23279;46.472;30.760;2023-04-06T12:07:00;78231.31;;;-146.33
37414;BMP280;23279;46.472;30.760;2023-04-06T12:09:26;78227.25;;;-146.33
37414;BMP280;23279;46.472;30.760;2023-04-06T12:11:51;78272.00;;;-146.33
37414;BMP280;23279;46.472;30.760;2023-04-06T12:14:17;78290.31;;;-146.33
37414;BMP280;23279;46.472;30.760;2023-04-06T12:16:42;78267.94;;;-146.33
37414;BMP280;23279;46.472;30.760;2023-04-06T12:19:09;78227.25;;;-146.33
37414;BMP280;23279;46.472;30.760;2023-04-06T12:21:35;78245.56;;;-146.33
37414;BMP280;23279;46.472;30.760;2023-04-06T12:24:05;78272.00;;;-146.33
37414;BMP280;23279;46.472;30.760;2023-04-06T12:26:31;78304.56;;;-146.33
37414;BMP280;23279;46.472;30.760;2023-04-06T12:28:58;78316.78;;;-146.33
37414;BMP280;23279;46.472;30.760;2023-04-06T12:31:30;78292.34;;;-146.33
37414;BMP280;23279;46.472;30.760;2023-04-06T12:33:55;78335.09;;;-146.33
37414;BMP280;23279;46.472;30.760;2023-04-06T12:36:20;78326.97;;;-146.33
37414;BMP280;23279;46.472;30.760;2023-04-06T12:38:49;78361.56;;;-146.33
37414;BMP280;23279;46.472;30.760;2023-04-06T12:41:16;78377.84;;;-146.33
37414;BMP280;23279;46.472;30.760;2023-04-06T12:43:43;78337.13;;;-146.33
37414;BMP280;23279;46.472;30.760;2023-04-06T12:46:09;78333.06;;;-146.33
37414;BMP280;23279;46.472;30.760;2023-04-06T12:48:35;78339.16;;;-146.33
37414;BMP280;23279;46.472;30.760;2023-04-06T12:51:03;78324.91;;;-146.33
37414;BMP280;23279;46.472;30.760;2023-04-06T12:53:29;78292.34;;;-146.33
37414;BMP280;23279;46.472;30.760;2023-04-06T12:55:55;78263.88;;;-146.33
37414;BMP280;23279;46.472;30.760;2023-04-06T12:58:21;78284.22;;;-146.33
37414;BMP280;23279;46.472;30.760;2023-04-06T13:00:48;78312.72;;;-146.33
37414;BMP280;23279;46.472;30.760;2023-04-06T13:03:13;78304.56;;;-146.33
37414;BMP280;23279;46.472;30.760;2023-04-06T13:05:46;78304.56;;;-146.33
37414;BMP280;23279;46.472;30.760;2023-04-06T13:08:12;78349.34;;;-146.33
37414;BMP280;23279;46.472;30.760;2023-04-06T13:10:38;78369.69;;;-146.33
37414;BMP280;23279;46.472;30.760;2023-04-06T13:13:08;78385.97;;;-146.33
37414;BMP280;23279;46.472;30.760;2023-04-06T13:15:33;78398.19;;;-146.33
37414;BMP280;23279;46.472;30.760;2023-04-06T13:18:01;78398.19;;;-146.33
37414;BMP280;23279;46.472;30.760;2023-04-06T13:20:26;78396.16;;;-146.33
37414;BMP280;23279;46.472;30.760;2023-04-06T13:22:52;78402.25;;;-146.33
37414;BMP280;23279;46.472;30.760;2023-04-06T13:25:18;78379.88;;;-146.33
37414;BMP280;23279;46.472;30.760;2023-04-06T13:27:43;78406.31;;;-146.33
37414;BMP280;23279;46.472;30.760;2023-04-06T13:30:12;78410.41;;;-146.33
37414;BMP280;23279;46.472;30.760;2023-04-06T13:32:38;78442.97;;;-146.33
37414;BMP280;23279;46.472;30.760;2023-04-06T13:35:04;78447.03;;;-146.33